Time;durP1;ratioP1;P1;durP2;ratioP2;P2;SDS_P1;SDS_P2;PMS_P1;PMS_P2;Temp;Humidity;BMP_temperature;BMP_pressure;BME280_temperature;BME280_humidity;BME280_pressure;Samples;Min_cycle;Max_cycle;Signal;HPM_P1;HPM_P2
2021/07/31 16:57:51;;;;;;;7.43;3.53;;;27.00;57.90;;;;;;4072253;28;20387;-60
2021/07/31 16:59:53;;;;;;;11.20;3.33;;;27.10;56.80;;;;;;4135207;28;20060;-59
2021/07/31 17:01:55;;;;;;;8.20;3.28;;;27.10;56.30;;;;;;4147684;28;20050;-57
2021/07/31 17:03:58;;;;;;;5.97;3.22;;;27.10;56.10;;;;;;4145890;28;20110;-57
2021/07/31 17:06:00;;;;;;;4.20;2.80;;;27.10;56.20;;;;;;4146593;28;20408;-57
2021/07/31 17:08:02;;;;;;;6.93;2.95;;;27.10;56.30;;;;;;4146496;28;20050;-57
2021/07/31 17:10:05;;;;;;;8.15;2.85;;;27.10;56.60;;;;;;4146199;28;20062;-57
2021/07/31 17:12:07;;;;;;;7.93;2.80;;;27.00;56.50;;;;;;4146442;28;20085;-57
2021/07/31 17:14:09;;;;;;;3.67;2.25;;;27.00;56.50;;;;;;4146107;28;20467;-57
2021/07/31 17:16:11;;;;;;;4.35;2.50;;;27.10;56.50;;;;;;4146211;28;20054;-57
2021/07/31 17:18:13;;;;;;;6.18;2.40;;;27.00;56.40;;;;;;4146554;28;20069;-57
2021/07/31 17:20:15;;;;;;;11.60;2.97;;;27.00;56.40;;;;;;4146342;28;20059;-57
2021/07/31 17:22:17;;;;;;;7.63;2.58;;;27.00;56.70;;;;;;4147547;28;20047;-57
2021/07/31 17:24:19;;;;;;;5.00;2.92;;;27.10;57.30;;;;;;4146980;28;20050;-57
2021/07/31 17:26:21;;;;;;;4.47;2.30;;;27.10;57.40;;;;;;4147080;28;20051;-57
2021/07/31 17:28:23;;;;;;;9.88;3.75;;;27.10;57.50;;;;;;4146900;28;20466;-57
2021/07/31 17:30:26;;;;;;;5.15;2.60;;;27.10;58.20;;;;;;4147045;28;20050;-58
2021/07/31 17:32:28;;;;;;;6.93;2.80;;;27.10;57.90;;;;;;4145685;28;20062;-60
2021/07/31 17:34:30;;;;;;;6.43;2.83;;;27.20;57.90;;;;;;4146293;28;20051;-59
2021/07/31 17:36:32;;;;;;;7.75;3.55;;;27.20;57.50;;;;;;4144507;28;20047;-60
2021/07/31 17:38:34;;;;;;;7.07;3.75;;;27.20;57.20;;;;;;4144628;28;20047;-59
2021/07/31 17:40:36;;;;;;;5.80;2.97;;;27.30;57.10;;;;;;4144295;28;20061;-59
2021/07/31 17:42:46;;;;;;;7.51;3.13;;;27.30;57.00;;;;;;4058975;28;10001351;-59
2021/07/31 17:44:48;;;;;;;6.00;2.78;;;27.30;56.80;;;;;;4144371;28;20266;-58
2021/07/31 17:46:50;;;;;;;8.25;2.78;;;27.40;56.90;;;;;;4144144;28;20077;-59
2021/07/31 17:48:51;;;;;;;8.57;2.97;;;27.40;57.00;;;;;;4143805;28;20129;-59
2021/07/31 17:50:53;;;;;;;7.70;2.38;;;27.30;58.10;;;;;;4144392;28;20051;-55
2021/07/31 17:52:55;;;;;;;11.85;4.88;;;27.40;58.00;;;;;;4143625;28;20076;-60
2021/07/31 17:54:57;;;;;;;15.23;5.63;;;27.40;57.90;;;;;;4144378;28;20053;-60
2021/07/31 17:57:01;;;;;;;18.50;6.20;;;27.40;57.90;;;;;;4143944;28;20063;-62
2021/07/31 17:59:03;;;;;;;18.08;6.32;;;27.40;58.10;;;;;;4144081;28;20104;-62
2021/07/31 18:01:05;;;;;;;12.73;5.82;;;27.40;58.20;;;;;;4143688;28;20050;-61
2021/07/31 18:03:08;;;;;;;15.68;6.43;;;27.40;58.30;;;;;;4143643;28;20043;-57
2021/07/31 18:05:10;;;;;;;13.23;5.72;;;27.40;58.30;;;;;;4144207;28;20049;-57
2021/07/31 18:07:12;;;;;;;15.52;6.07;;;27.50;58.30;;;;;;4143702;28;20061;-59
2021/07/31 18:09:14;;;;;;;20.60;6.15;;;27.50;58.30;;;;;;4132579;28;20202;-59
2021/07/31 18:11:16;;;;;;;14.27;5.10;;;27.50;58.40;;;;;;4133098;28;20050;-59
2021/07/31 18:13:18;;;;;;;15.10;5.05;;;27.50;58.30;;;;;;4132378;28;20114;-57
2021/07/31 18:15:21;;;;;;;25.80;6.25;;;27.50;58.20;;;;;;4133189;28;20066;-56
2021/07/31 18:17:23;;;;;;;14.68;5.18;;;27.50;58.30;;;;;;4133157;28;20110;-54
2021/07/31 18:19:25;;;;;;;15.90;6.05;;;27.50;58.50;;;;;;4132706;28;20049;-53
2021/07/31 18:21:27;;;;;;;16.67;5.60;;;27.60;58.50;;;;;;4133224;28;20043;-47
2021/07/31 18:23:29;;;;;;;20.98;5.40;;;27.50;58.30;;;;;;4133120;28;20057;-45
2021/07/31 18:25:31;;;;;;;21.77;5.95;;;27.50;58.60;;;;;;4133180;28;20102;-50
2021/07/31 18:27:33;;;;;;;11.60;6.78;;;27.40;59.30;;;;;;4133803;28;20065;-52
2021/07/31 18:29:35;;;;;;;18.88;7.32;;;27.50;59.20;;;;;;4133127;28;20111;-54
2021/07/31 18:31:38;;;;;;;14.60;6.15;;;27.40;59.30;;;;;;4132623;28;20054;-56
2021/07/31 18:33:40;;;;;;;15.00;7.80;;;27.50;59.70;;;;;;4132795;28;20047;-55
2021/07/31 18:35:42;;;;;;;11.77;5.90;;;27.50;59.20;;;;;;4134253;28;20043;-46
2021/07/31 18:37:44;;;;;;;15.10;6.15;;;27.50;58.70;;;;;;4133327;28;20050;-59
2021/07/31 18:39:46;;;;;;;12.27;5.68;;;27.50;58.70;;;;;;4133466;28;20043;-51
2021/07/31 18:41:49;;;;;;;8.27;4.90;;;27.50;58.30;;;;;;4134023;28;20051;-57
2021/07/31 18:43:51;;;;;;;14.18;5.47;;;27.50;58.20;;;;;;4130864;28;20096;-58
2021/07/31 18:45:53;;;;;;;15.13;6.45;;;27.50;58.30;;;;;;4132480;28;20050;-57
2021/07/31 18:47:55;;;;;;;10.15;5.32;;;27.40;59.10;;;;;;4131162;28;20061;-57
2021/07/31 18:49:57;;;;;;;8.35;4.38;;;27.40;58.70;;;;;;4132715;28;20078;-57
2021/07/31 18:52:03;;;;;;;9.13;5.10;;;27.40;58.00;;;;;;4131072;28;20054;-62
2021/07/31 18:54:56;;;;;;;7.82;4.57;;;27.40;58.20;;;;;;4133430;23;20344;-71
2021/07/31 18:56:58;;;;;;;17.83;6.47;;;27.40;57.80;;;;;;3742666;29;10001726;-54
2021/07/31 18:59:01;;;;;;;13.57;5.75;;;27.40;58.50;;;;;;4086233;29;20044;-52
2021/07/31 19:01:03;;;;;;;11.40;5.82;;;27.40;58.90;;;;;;4086610;29;20501;-54
2021/07/31 19:03:05;;;;;;;15.52;4.57;;;27.30;59.30;;;;;;4085404;29;20502;-60
2021/07/31 19:05:08;;;;;;;14.57;5.03;;;27.30;58.90;;;;;;4084640;29;20052;-61
2021/07/31 19:07:10;;;;;;;10.13;5.50;;;27.30;58.90;;;;;;4083336;29;20071;-61
2021/07/31 19:09:13;;;;;;;10.25;4.90;;;27.40;58.60;;;;;;4085069;29;20159;-59
2021/07/31 19:11:15;;;;;;;7.80;4.22;;;27.40;58.40;;;;;;4085503;29;20052;-51
2021/07/31 19:13:17;;;;;;;8.05;3.70;;;27.40;58.30;;;;;;4086493;29;20064;-50
2021/07/31 19:15:19;;;;;;;4.22;2.80;;;27.50;58.40;;;;;;4086111;29;20056;-54
2021/07/31 19:17:21;;;;;;;13.35;3.08;;;27.50;58.40;;;;;;4085099;29;20054;-48
2021/07/31 19:19:23;;;;;;;3.75;2.80;;;27.50;58.30;;;;;;4084034;29;20048;-47
2021/07/31 19:21:25;;;;;;;4.47;2.00;;;27.40;58.30;;;;;;4085227;29;20044;-55
2021/07/31 19:23:27;;;;;;;3.25;1.88;;;27.40;58.30;;;;;;4085506;29;20048;-54
2021/07/31 19:25:29;;;;;;;3.58;1.48;;;27.40;58.40;;;;;;4072140;29;20045;-49
2021/07/31 19:27:31;;;;;;;4.95;1.52;;;27.40;58.50;;;;;;4085079;29;20112;-53
2021/07/31 19:29:34;;;;;;;1.90;1.30;;;27.40;58.70;;;;;;4084708;29;20062;-56
2021/07/31 19:31:36;;;;;;;1.55;1.45;;;27.40;58.50;;;;;;4083652;29;20056;-56
2021/07/31 19:33:39;;;;;;;2.63;1.90;;;27.40;58.70;;;;;;4085006;29;20111;-55
2021/07/31 19:35:41;;;;;;;1.85;1.67;;;27.50;58.50;;;;;;4084941;29;20067;-54
2021/07/31 19:37:43;;;;;;;1.70;1.60;;;27.40;58.30;;;;;;4084576;29;20131;-55
2021/07/31 19:39:45;;;;;;;4.55;1.70;;;27.40;58.20;;;;;;4084802;29;20207;-56
2021/07/31 19:41:50;;;;;;;2.30;1.45;;;27.40;58.10;;;;;;4084813;29;20063;-56
2021/07/31 19:43:52;;;;;;;1.83;1.40;;;27.50;58.00;;;;;;4084657;29;20048;-54
2021/07/31 19:45:54;;;;;;;2.20;1.60;;;27.50;57.90;;;;;;4084845;29;20048;-53
2021/07/31 19:47:56;;;;;;;2.55;1.30;;;27.50;57.80;;;;;;4084853;29;20068;-54
2021/07/31 19:49:58;;;;;;;4.25;2.00;;;27.50;57.70;;;;;;4084775;29;20056;-52
2021/07/31 19:52:00;;;;;;;2.45;1.60;;;27.50;57.70;;;;;;4084562;29;20048;-51
2021/07/31 19:54:02;;;;;;;2.28;1.45;;;27.50;57.60;;;;;;4085080;29;20063;-46
2021/07/31 19:56:04;;;;;;;4.22;1.88;;;27.50;57.60;;;;;;4085093;29;20092;-48
2021/07/31 19:58:06;;;;;;;3.50;2.50;;;27.40;57.00;;;;;;4097760;29;20047;-49
2021/07/31 20:00:10;;;;;;;6.70;4.13;;;27.40;55.90;;;;;;4085668;29;20112;-49
2021/07/31 20:02:12;;;;;;;8.45;3.60;;;27.40;55.70;;;;;;4085409;29;20086;-49
2021/07/31 20:04:14;;;;;;;6.45;3.38;;;27.30;56.00;;;;;;4085806;29;20048;-46
2021/07/31 20:06:16;;;;;;;8.10;3.92;;;27.30;55.40;;;;;;4085537;29;20050;-45
2021/07/31 20:08:18;;;;;;;7.68;4.35;;;27.30;55.20;;;;;;4085311;29;20064;-45
2021/07/31 20:10:23;;;;;;;6.00;3.85;;;27.30;55.20;;;;;;4085281;29;20079;-43
2021/07/31 20:12:25;;;;;;;6.32;3.88;;;27.30;55.00;;;;;;4085365;29;20051;-46
2021/07/31 20:14:27;;;;;;;7.28;4.70;;;27.20;55.00;;;;;;4085377;29;20058;-48
2021/07/31 20:16:29;;;;;;;12.10;4.07;;;27.20;54.80;;;;;;4085410;29;20052;-47
2021/07/31 20:18:31;;;;;;;7.35;4.07;;;27.30;56.40;;;;;;4085225;29;20052;-49
2021/07/31 20:20:33;;;;;;;7.85;4.38;;;27.20;55.30;;;;;;4085206;29;20055;-46
2021/07/31 20:22:36;;;;;;;7.82;4.40;;;27.20;55.20;;;;;;4085442;29;20044;-52
2021/07/31 20:24:39;;;;;;;7.75;4.50;;;27.20;55.10;;;;;;4085520;29;20055;-48
2021/07/31 20:26:41;;;;;;;10.73;4.47;;;27.20;55.00;;;;;;4085847;29;20048;-52
2021/07/31 20:28:43;;;;;;;8.32;3.83;;;27.30;54.80;;;;;;4086071;29;20104;-48
2021/07/31 20:30:45;;;;;;;22.10;5.00;;;27.30;54.80;;;;;;4085662;29;20044;-52
2021/07/31 20:32:47;;;;;;;10.13;4.18;;;27.30;54.70;;;;;;4085602;29;20052;-45
2021/07/31 20:34:49;;;;;;;8.50;5.25;;;27.30;55.00;;;;;;4085853;29;20048;-46
2021/07/31 20:36:51;;;;;;;4.97;3.95;;;27.20;55.20;;;;;;4085718;29;20044;-50
2021/07/31 20:38:53;;;;;;;6.53;4.25;;;27.20;55.30;;;;;;4085827;29;20048;-45
2021/07/31 20:40:55;;;;;;;11.98;4.63;;;27.20;55.10;;;;;;4085920;29;20058;-50
2021/07/31 20:42:57;;;;;;;6.65;4.63;;;27.20;55.30;;;;;;4085957;29;20052;-46
2021/07/31 20:45:00;;;;;;;9.43;5.00;;;27.20;55.30;;;;;;4085945;29;20084;-48
2021/07/31 20:47:03;;;;;;;8.07;4.50;;;27.20;55.60;;;;;;4085742;29;20055;-49
2021/07/31 20:49:05;;;;;;;8.52;4.53;;;27.10;55.70;;;;;;4085934;29;20113;-49
2021/07/31 20:51:07;;;;;;;10.52;4.82;;;27.10;55.80;;;;;;4085804;29;20059;-47
2021/07/31 20:53:09;;;;;;;10.57;5.70;;;27.10;56.00;;;;;;4085789;29;20091;-48
2021/07/31 20:55:12;;;;;;;12.90;5.20;;;27.10;56.10;;;;;;4085559;29;20048;-49
2021/07/31 20:57:14;;;;;;;11.60;4.57;;;27.10;56.30;;;;;;4085785;29;20052;-46
2021/07/31 20:59:17;;;;;;;7.43;4.78;;;27.10;56.50;;;;;;4085840;29;20048;-46
2021/07/31 21:01:19;;;;;;;6.60;4.65;;;27.10;56.60;;;;;;4085920;29;20056;-50
2021/07/31 21:03:21;;;;;;;14.10;5.10;;;27.00;56.70;;;;;;4085814;29;20103;-46
2021/07/31 21:05:24;;;;;;;7.75;5.40;;;27.00;56.90;;;;;;4085958;29;20104;-50
2021/07/31 21:07:26;;;;;;;5.78;4.68;;;27.00;57.00;;;;;;4085883;29;20044;-47
2021/07/31 21:09:30;;;;;;;14.38;4.90;;;27.00;57.10;;;;;;4085808;29;20066;-47
2021/07/31 21:11:33;;;;;;;10.80;5.80;;;27.00;57.20;;;;;;4085846;29;20079;-51
2021/07/31 21:13:34;;;;;;;10.10;5.25;;;27.00;57.30;;;;;;4085667;29;20048;-49
2021/07/31 21:15:36;;;;;;;9.85;6.05;;;27.10;57.40;;;;;;4085701;29;20087;-46
2021/07/31 21:17:39;;;;;;;9.50;6.03;;;27.10;57.50;;;;;;4085781;29;20066;-47
2021/07/31 21:19:41;;;;;;;7.57;4.78;;;27.00;57.50;;;;;;4085943;29;20048;-47
2021/07/31 21:21:43;;;;;;;8.25;5.93;;;27.00;57.60;;;;;;4085690;29;20044;-47
2021/07/31 21:23:45;;;;;;;7.80;5.20;;;27.00;57.70;;;;;;4085785;29;20076;-49
2021/07/31 21:25:48;;;;;;;11.05;5.15;;;27.00;57.80;;;;;;4085636;29;20055;-52
2021/07/31 21:27:50;;;;;;;10.60;6.78;;;27.00;57.80;;;;;;4085548;29;20063;-45
2021/07/31 21:29:52;;;;;;;9.20;5.40;;;27.00;57.80;;;;;;4085663;29;20048;-45
2021/07/31 21:31:54;;;;;;;9.88;5.28;;;27.00;57.80;;;;;;4085663;29;20052;-47
2021/07/31 21:33:56;;;;;;;10.40;5.85;;;27.00;57.90;;;;;;4085517;29;20085;-45
2021/07/31 21:36:01;;;;;;;9.50;4.93;;;27.00;57.90;;;;;;4085348;29;20052;-63
2021/07/31 21:38:03;;;;;;;11.38;5.47;;;27.00;57.90;;;;;;4084836;29;20132;-63
2021/07/31 21:40:06;;;;;;;10.43;5.30;;;27.00;58.00;;;;;;4084811;29;20051;-63
2021/07/31 21:42:09;;;;;;;6.93;5.13;;;27.00;58.10;;;;;;4085002;29;20056;-63
2021/07/31 21:44:11;;;;;;;9.20;5.43;;;27.00;58.20;;;;;;4087404;29;20076;-63
2021/07/31 21:46:13;;;;;;;11.15;5.35;;;27.00;58.20;;;;;;4087831;29;20052;-64
2021/07/31 21:48:15;;;;;;;8.32;5.40;;;27.00;58.30;;;;;;4087742;29;20133;-63
2021/07/31 21:50:17;;;;;;;7.45;5.20;;;27.00;58.30;;;;;;4087692;29;20064;-63
2021/07/31 21:52:19;;;;;;;8.32;5.82;;;27.00;58.40;;;;;;4087757;29;20056;-64
2021/07/31 21:54:21;;;;;;;11.32;5.18;;;27.00;58.40;;;;;;4087897;29;20047;-63
2021/07/31 21:56:23;;;;;;;8.20;5.28;;;26.90;58.50;;;;;;4087553;29;20067;-64
2021/07/31 21:58:26;;;;;;;12.13;5.68;;;26.90;58.50;;;;;;4087548;29;20048;-63
2021/07/31 22:00:31;;;;;;;11.90;5.30;;;26.90;58.60;;;;;;4087622;29;20108;-64
2021/07/31 22:02:33;;;;;;;12.05;5.45;;;26.90;58.60;;;;;;4087533;29;20048;-63
2021/07/31 22:04:36;;;;;;;9.82;5.32;;;26.90;58.60;;;;;;4087616;29;20103;-52
2021/07/31 22:06:38;;;;;;;8.98;5.80;;;26.90;58.70;;;;;;4087682;29;20140;-50
2021/07/31 22:08:40;;;;;;;12.52;5.40;;;26.90;58.70;;;;;;4087756;29;20056;-52
2021/07/31 22:10:42;;;;;;;9.10;5.60;;;26.90;58.70;;;;;;4087434;29;20058;-53
2021/07/31 22:12:44;;;;;;;9.43;5.05;;;26.90;58.80;;;;;;4087433;29;20070;-54
2021/07/31 22:14:48;;;;;;;10.13;5.53;;;26.90;58.80;;;;;;4087410;29;20054;-53
2021/07/31 22:16:50;;;;;;;9.20;5.55;;;26.90;58.80;;;;;;4087305;29;20052;-51
2021/07/31 22:18:53;;;;;;;9.50;5.35;;;27.00;58.70;;;;;;4087442;29;20055;-52
2021/07/31 22:20:56;;;;;;;8.75;5.60;;;27.00;58.60;;;;;;4087420;29;20076;-55
2021/07/31 22:22:59;;;;;;;9.77;5.38;;;27.00;58.60;;;;;;4087338;29;20055;-51
2021/07/31 22:25:02;;;;;;;9.80;5.53;;;27.00;58.60;;;;;;4087307;29;20054;-52
2021/07/31 22:27:04;;;;;;;6.63;5.70;;;26.90;58.50;;;;;;4087246;29;20048;-52
2021/07/31 22:29:06;;;;;;;11.35;4.75;;;27.00;58.50;;;;;;4087288;29;20052;-57
2021/07/31 22:31:08;;;;;;;10.65;6.05;;;26.90;58.50;;;;;;4087385;29;20048;-56
2021/07/31 22:33:10;;;;;;;8.52;5.30;;;26.90;58.60;;;;;;4085036;29;20480;-56
2021/07/31 22:35:13;;;;;;;9.25;5.32;;;26.90;58.60;;;;;;4087073;29;20070;-56
2021/07/31 22:37:15;;;;;;;10.68;5.65;;;26.90;58.60;;;;;;4087115;29;20107;-56
2021/07/31 22:39:17;;;;;;;9.10;6.43;;;26.90;58.50;;;;;;4086865;29;20058;-56
2021/07/31 22:41:19;;;;;;;7.07;5.40;;;26.90;58.50;;;;;;4087090;29;20052;-55
2021/07/31 22:43:21;;;;;;;8.80;5.05;;;26.90;58.60;;;;;;4087207;29;20088;-57
2021/07/31 22:45:23;;;;;;;8.07;5.78;;;26.90;58.60;;;;;;4086990;29;20066;-55
2021/07/31 22:47:25;;;;;;;9.60;5.80;;;26.90;58.70;;;;;;4086158;29;20073;-56
2021/07/31 22:49:28;;;;;;;6.88;4.95;;;26.90;58.60;;;;;;4086929;29;20047;-56
2021/07/31 22:51:30;;;;;;;8.43;5.68;;;26.90;58.60;;;;;;4086960;29;20068;-55
2021/07/31 22:53:32;;;;;;;9.23;5.22;;;26.90;58.60;;;;;;4086863;29;20044;-54
2021/07/31 22:55:34;;;;;;;10.23;5.90;;;26.90;58.70;;;;;;4086788;29;20047;-56
2021/07/31 22:57:36;;;;;;;8.45;5.13;;;26.80;58.60;;;;;;4086610;29;20064;-57
2021/07/31 22:59:38;;;;;;;9.73;5.50;;;26.80;58.60;;;;;;4086864;29;20121;-57
2021/07/31 23:01:40;;;;;;;6.90;5.75;;;26.80;58.60;;;;;;4086699;29;20077;-57
2021/07/31 23:03:42;;;;;;;9.75;5.07;;;26.80;58.70;;;;;;4086553;29;20059;-57
2021/07/31 23:05:44;;;;;;;8.55;5.72;;;26.80;58.70;;;;;;4086795;29;20055;-56
2021/07/31 23:07:46;;;;;;;8.90;6.35;;;26.80;58.70;;;;;;4086477;29;20067;-57
2021/07/31 23:09:48;;;;;;;9.25;5.75;;;26.80;58.70;;;;;;4086510;29;20111;-57
2021/07/31 23:11:50;;;;;;;9.40;6.05;;;26.80;58.80;;;;;;4086568;29;20048;-57
2021/07/31 23:13:52;;;;;;;12.70;5.90;;;26.80;58.70;;;;;;4086423;29;20059;-57
2021/07/31 23:15:54;;;;;;;7.68;4.85;;;26.80;58.70;;;;;;4086574;29;20054;-57
2021/07/31 23:17:56;;;;;;;10.88;5.38;;;26.80;58.70;;;;;;4086356;29;20048;-53
2021/07/31 23:19:58;;;;;;;8.95;6.40;;;26.80;58.80;;;;;;4086396;29;20071;-56
2021/07/31 23:22:01;;;;;;;8.90;5.53;;;26.80;58.70;;;;;;4086240;29;20048;-55
2021/07/31 23:24:04;;;;;;;11.02;5.63;;;26.80;58.70;;;;;;4086476;29;20052;-56
2021/07/31 23:26:07;;;;;;;6.15;5.30;;;26.80;58.80;;;;;;4086388;29;20048;-54
2021/07/31 23:28:09;;;;;;;11.77;5.60;;;26.80;58.90;;;;;;4086455;29;20056;-56
2021/07/31 23:30:11;;;;;;;13.13;5.78;;;26.80;58.90;;;;;;4086267;29;20051;-56
2021/07/31 23:32:13;;;;;;;12.20;5.20;;;26.80;59.00;;;;;;4086230;29;20052;-55
2021/07/31 23:34:15;;;;;;;7.93;5.50;;;26.80;59.10;;;;;;4086338;29;20066;-55
2021/07/31 23:36:17;;;;;;;8.30;6.13;;;26.80;59.20;;;;;;4086211;29;20052;-56
2021/07/31 23:38:19;;;;;;;8.10;6.22;;;26.80;59.20;;;;;;4086197;29;20064;-56
2021/07/31 23:40:21;;;;;;;10.75;6.78;;;26.80;59.20;;;;;;4086137;29;20052;-55
2021/07/31 23:42:23;;;;;;;8.80;5.97;;;26.80;59.20;;;;;;4086116;29;20079;-63
2021/07/31 23:44:25;;;;;;;11.68;6.45;;;26.80;59.20;;;;;;4086004;29;20055;-63
2021/07/31 23:46:27;;;;;;;7.97;5.53;;;26.70;59.20;;;;;;4085897;29;20048;-63
2021/07/31 23:48:29;;;;;;;9.52;5.82;;;26.80;59.20;;;;;;4086228;29;20084;-63
2021/07/31 23:50:33;;;;;;;9.80;5.80;;;26.70;59.20;;;;;;4086124;29;20052;-63
2021/07/31 23:52:35;;;;;;;10.68;5.82;;;26.70;59.10;;;;;;4085997;29;20052;-63
2021/07/31 23:54:37;;;;;;;15.23;7.03;;;26.70;59.10;;;;;;4085947;29;20063;-63
2021/07/31 23:56:43;;;;;;;10.65;5.75;;;26.70;59.10;;;;;;4085962;29;20056;-63
2021/07/31 23:58:45;;;;;;;8.30;5.82;;;26.70;59.10;;;;;;4085725;29;20048;-65
